Christian W Cenac — WDF5379 — position and weather

sailwx.info

Track history (hours):
 
Tides and Currents Weather Stations Pressure Air Temp Water Temp Dewpoint Dewpoint Depression Visibility Wind Speed Wind Dir Waves Ship Positions

Christian W Cenac

Owner: CTCO Marine Services LLC, Houma, LA. More information available from US FCC via Universal Licensing System and Coast Guard Vessel Documentation Center.

Last reported at 2018-Feb-21 06:07 UTC. Time now 2018-Feb-21 17:13 UTC.
Position N 29°25' W 094°43'.

Length 85 m; draft 2.1 m.

Type: Tug. MMSI: 367462490.

Date/timePositionNaut miles runAvg speedWind from/ knotsBaromVisibWave heightAir tempDewpointWater temp
2018-Feb-21 06:07N 29°25' W 094°43'0 0.0
2018-Feb-21 02:49N 29°25' W 094°43'0 0.0
2018-Feb-20 13:50N 29°25' W 094°43'0 0.0
2018-Feb-20 13:30N 29°25' W 094°43'0 0.0
2018-Feb-20 12:57N 29°25' W 094°43'0 0.0
2018-Feb-20 12:27N 29°25' W 094°43'0 0.0
2018-Feb-20 11:45N 29°25' W 094°43'0 0.0
2018-Feb-20 11:30N 29°25' W 094°43'0 0.0
2018-Feb-20 10:58N 29°25' W 094°43'0 0.0
2018-Feb-20 10:30N 29°25' W 094°43'0 0.0
2018-Feb-20 09:28N 29°25' W 094°43'0 0.0
2018-Feb-20 07:32N 29°25' W 094°43'0 0.0
2018-Feb-20 07:21N 29°25' W 094°43'0 0.0
2018-Feb-20 07:00N 29°25' W 094°43'0 0.0
2018-Feb-19 19:48N 29°25' W 094°43'3 0.7
2018-Feb-19 16:11N 29°24' W 094°46'1 5.9
2018-Feb-19 16:00N 29°24' W 094°45'2 2.9
2018-Feb-19 15:27N 29°25' W 094°43'0 0.0
2018-Feb-19 14:55N 29°25' W 094°43'0 0.8
2018-Feb-19 14:28N 29°26' W 094°43'0 0.2
2018-Feb-19 14:00N 29°25' W 094°43'0 0.0
2018-Feb-19 13:30N 29°25' W 094°43'0 0.0
2018-Feb-19 13:00N 29°25' W 094°43'2 3.0
2018-Feb-19 12:16N 29°27' W 094°41'2 5.2
2018-Feb-19 11:56N 29°28' W 094°40'2 5.0
2018-Feb-19 11:27N 29°29' W 094°37'2 5.0
2018-Feb-19 11:00N 29°30' W 094°35'2 4.6
2018-Feb-19 10:30N 29°30' W 094°32'3 5.4
2018-Feb-19 10:01N 29°31' W 094°29'1 1.6
2018-Feb-19 09:30N 29°32' W 094°29'2 4.1
2018-Feb-19 09:00N 29°34' W 094°27'1 2.2
2018-Feb-19 08:30N 29°34' W 094°26'0 0.0
2018-Feb-19 08:00N 29°34' W 094°26'0 0.0
2018-Feb-19 07:30N 29°34' W 094°26'0 0.0
2018-Feb-19 07:00N 29°34' W 094°26'0 0.0
2018-Feb-19 06:30N 29°34' W 094°26'0 0.0
2018-Feb-19 05:59N 29°34' W 094°26'0 0.0
2018-Feb-19 05:30N 29°34' W 094°26'0 0.0
2018-Feb-19 05:00N 29°34' W 094°26'0 0.0
2018-Feb-19 04:29N 29°34' W 094°26'0 0.0
2018-Feb-19 03:58N 29°34' W 094°26'0 0.0
2018-Feb-19 03:30N 29°34' W 094°26'0 0.0
2018-Feb-19 02:59N 29°34' W 094°26'0 0.0
2018-Feb-19 02:29N 29°34' W 094°26'0 0.0
2018-Feb-19 02:00N 29°34' W 094°26'0 0.0
2018-Feb-19 01:22N 29°34' W 094°26'0 0.0
2018-Feb-18 23:21N 29°34' W 094°26'3 1.0
2018-Feb-18 20:33N 29°36' W 094°24'1 5.3
2018-Feb-18 20:17N 29°36' W 094°22'2 5.9
2018-Feb-18 19:57N 29°37' W 094°20'2 5.4
2018-Feb-18 19:29N 29°38' W 094°18'2 4.1
2018-Feb-18 18:58N 29°39' W 094°16'1 1.3
2018-Feb-18 18:31N 29°39' W 094°15'1 2.7
2018-Feb-18 17:59N 29°40' W 094°14'2 3.4
2018-Feb-18 17:30N 29°41' W 094°12'1 2.1
2018-Feb-18 17:00N 29°41' W 094°11'1 1.7
2018-Feb-18 16:30N 29°41' W 094°10'0 0.8
2018-Feb-18 16:00N 29°41' W 094°09'2 3.2
2018-Feb-18 15:30N 29°42' W 094°08'1 1.6
2018-Feb-18 14:59N 29°43' W 094°07'0 0.0
2018-Feb-18 14:30N 29°43' W 094°07'0 0.0
2018-Feb-18 14:00N 29°43' W 094°07'0 0.0
2018-Feb-18 13:30N 29°43' W 094°07'0 0.0
2018-Feb-18 13:00N 29°43' W 094°07'0 0.0
2018-Feb-18 12:30N 29°43' W 094°07'0 0.0
2018-Feb-18 12:01N 29°43' W 094°07'0 0.0
2018-Feb-18 11:31N 29°43' W 094°07'0 0.0
2018-Feb-18 11:01N 29°43' W 094°07'0 0.0
2018-Feb-18 10:30N 29°43' W 094°07'0 0.0
2018-Feb-18 10:00N 29°43' W 094°07'0 0.0
2018-Feb-18 09:31N 29°43' W 094°07'0 0.0
2018-Feb-18 09:01N 29°43' W 094°07'2 4.4
2018-Feb-18 08:30N 29°44' W 094°05'3 5.5
2018-Feb-18 08:00N 29°46' W 094°03'3 5.4
2018-Feb-18 07:30N 29°48' W 094°00'2 3.6
2018-Feb-18 07:01N 29°49' W 093°59'3 5.4
2018-Feb-18 06:30N 29°51' W 093°57'4 7.5
2018-Feb-18 06:00N 29°54' W 093°54'4 7.1
2018-Feb-18 05:30N 29°57' W 093°52'3 5.7
2018-Feb-18 05:01N 29°59' W 093°49'3 6.7
2018-Feb-18 04:31N 30°00' W 093°46'3 5.8
2018-Feb-18 04:00N 30°03' W 093°44'0 0.6
2018-Feb-18 03:30N 30°03' W 093°44'0 0.0
2018-Feb-18 03:00N 30°03' W 093°44'0 0.0
2018-Feb-18 02:30N 30°03' W 093°44'1 1.3
2018-Feb-18 02:01N 30°03' W 093°43'4 5.5
2018-Feb-18 01:22N 30°04' W 093°39'2 5.3
2018-Feb-18 01:00N 30°04' W 093°37'3 5.4
2018-Feb-18 00:27N 30°04' W 093°33'2 5.4
2018-Feb-18 00:00N 30°04' W 093°31'3 5.4
2018-Feb-17 23:30N 30°04' W 093°27'3 5.5
2018-Feb-17 23:00N 30°04' W 093°24'3 5.9
2018-Feb-17 22:31N 30°04' W 093°21'3 5.9
2018-Feb-17 22:00N 30°06' W 093°18'3 4.8
2018-Feb-17 21:29N 30°04' W 093°16'2 4.6
2018-Feb-17 21:00N 30°02' W 093°15'1 1.5
2018-Feb-17 20:31N 30°02' W 093°14'3 6.5
2018-Feb-17 20:01N 29°59' W 093°12'3 6.8
2018-Feb-17 19:30N 29°56' W 093°10'44 1.9
2018-Feb-16 20:15N 29°50' W 092°19'1 5.2
2018-Feb-16 20:00N 29°50' W 092°18'3 5.3
2018-Feb-16 19:30N 29°48' W 092°16'3 5.3
2018-Feb-16 19:00N 29°47' W 092°13'2 4.0
2018-Feb-16 18:30N 29°47' W 092°11'3 5.3
2018-Feb-16 18:00N 29°47' W 092°08'4 5.8
2018-Feb-16 17:16N 29°49' W 092°03'65 2.3
2018-Feb-15 13:16N 29°32' W 090°50'0 1.7
2018-Feb-15 13:00N 29°32' W 090°50'0 0.0
2018-Feb-15 12:30N 29°32' W 090°50'0 0.0
2018-Feb-15 12:00N 29°32' W 090°50'0 0.0
2018-Feb-15 11:30N 29°32' W 090°50'0 0.0
2018-Feb-15 11:00N 29°32' W 090°50'0 0.0
2018-Feb-15 10:30N 29°32' W 090°50'0 0.0
2018-Feb-15 10:00N 29°32' W 090°50'0 0.0
2018-Feb-15 09:30N 29°32' W 090°50'0 0.0
2018-Feb-15 09:00N 29°32' W 090°50'2 4.6
2018-Feb-15 08:30N 29°32' W 090°47'2 4.5
2018-Feb-15 08:00N 29°33' W 090°45'2 4.1
2018-Feb-15 07:30N 29°35' W 090°43'2 4.9
2018-Feb-15 07:01N 29°37' W 090°42'3 5.4
2018-Feb-15 06:30N 29°36' W 090°39'1 2.4
2018-Feb-15 06:00N 29°35' W 090°38'0 0.0
2018-Feb-15 05:30N 29°35' W 090°38'0 0.0
2018-Feb-15 05:00N 29°35' W 090°38'0 0.0
2018-Feb-15 04:30N 29°35' W 090°38'0 0.0
2018-Feb-15 04:00N 29°35' W 090°38'0 0.0
2018-Feb-15 03:30N 29°35' W 090°38'2 4.8
2018-Feb-15 02:59N 29°35' W 090°35'8 0.2
2018-Feb-13 01:16N 29°33' W 090°26'2 5.1
2018-Feb-13 00:57N 29°33' W 090°28'2 5.1
2018-Feb-13 00:30N 29°34' W 090°31'3 5.2
2018-Feb-13 00:00N 29°34' W 090°34'2 4.4
2018-Feb-12 23:30N 29°35' W 090°36'2 4.1
2018-Feb-12 23:00N 29°35' W 090°38'2 4.5
2018-Feb-12 22:30N 29°36' W 090°41'2 3.2
2018-Feb-12 22:00N 29°36' W 090°43'2 3.9
2018-Feb-12 21:30N 29°35' W 090°43'2 3.2
2018-Feb-12 21:00N 29°34' W 090°45'1 1.4
2018-Feb-12 20:30N 29°33' W 090°45'2 4.8
2018-Feb-12 20:00N 29°32' W 090°48'65 4.2
2018-Feb-12 04:28N 29°50' W 091°59'3 5.5
2018-Feb-12 04:01N 29°49' W 092°02'2 4.9
2018-Feb-12 03:30N 29°48' W 092°05'2 5.0
2018-Feb-12 03:00N 29°47' W 092°07'3 5.1
2018-Feb-12 02:30N 29°47' W 092°10'3 5.4
2018-Feb-12 02:00N 29°47' W 092°13'2 3.8
2018-Feb-12 01:30N 29°48' W 092°15'3 4.3
2018-Feb-12 00:47N 29°50' W 092°18'1 5.0
2018-Feb-12 00:30N 29°50' W 092°20'43 4.6
2018-Feb-11 15:01N 29°56' W 093°09'0 4.7
2018-Feb-11 14:59N 29°56' W 093°09'2 5.0
2018-Feb-11 14:30N 29°58' W 093°11'3 5.2
2018-Feb-11 14:00N 29°60' W 093°13'1 2.9
2018-Feb-11 13:30N 30°01' W 093°14'1 1.7
2018-Feb-11 12:59N 30°02' W 093°15'0 0.0
2018-Feb-11 12:30N 30°02' W 093°15'0 0.0
2018-Feb-11 12:00N 30°02' W 093°15'0 0.0
2018-Feb-11 11:30N 30°02' W 093°15'0 0.0
2018-Feb-11 11:00N 30°02' W 093°15'0 0.0
2018-Feb-11 10:29N 30°02' W 093°15'0 0.0
2018-Feb-11 09:59N 30°02' W 093°15'0 0.0
2018-Feb-11 09:30N 30°02' W 093°15'0 0.0
2018-Feb-11 08:55N 30°02' W 093°15'0 0.0
2018-Feb-11 08:30N 30°02' W 093°15'0 0.0
2018-Feb-11 08:00N 30°02' W 093°15'0 0.0
2018-Feb-11 07:29N 30°02' W 093°15'0 0.0
2018-Feb-11 07:01N 30°02' W 093°15'1 2.0
2018-Feb-11 06:30N 30°02' W 093°16'  
Track history (hours):
 
Tides and Currents Weather Stations Pressure Air Temp Water Temp Dewpoint Dewpoint Depression Visibility Wind Speed Wind Dir Waves Ship Positions

Christian W Cenac

Owner: CTCO Marine Services LLC, Houma, LA. More information available from US FCC via Universal Licensing System and Coast Guard Vessel Documentation Center.

Last reported at 2018-Feb-21 06:07 UTC. Time now 2018-Feb-21 17:14 UTC.
Position N 29°25' W 094°43'.

Length 85 m; draft 2.1 m.

Type: Tug. MMSI: 367462490.

Date/timePositionNaut miles runAvg speedWind from/ knotsBaromVisibWave heightAir tempDewpointWater temp
2018-Feb-21 06:07N 29°25' W 094°43'0 0.0
2018-Feb-21 02:49N 29°25' W 094°43'0 0.0
2018-Feb-20 13:50N 29°25' W 094°43'0 0.0
2018-Feb-20 13:30N 29°25' W 094°43'0 0.0
2018-Feb-20 12:57N 29°25' W 094°43'0 0.0
2018-Feb-20 12:27N 29°25' W 094°43'0 0.0
2018-Feb-20 11:45N 29°25' W 094°43'0 0.0
2018-Feb-20 11:30N 29°25' W 094°43'0 0.0
2018-Feb-20 10:58N 29°25' W 094°43'0 0.0
2018-Feb-20 10:30N 29°25' W 094°43'0 0.0
2018-Feb-20 09:28N 29°25' W 094°43'0 0.0
2018-Feb-20 07:32N 29°25' W 094°43'0 0.0
2018-Feb-20 07:21N 29°25' W 094°43'0 0.0
2018-Feb-20 07:00N 29°25' W 094°43'0 0.0
2018-Feb-19 19:48N 29°25' W 094°43'3 0.7
2018-Feb-19 16:11N 29°24' W 094°46'1 5.9
2018-Feb-19 16:00N 29°24' W 094°45'2 2.9
2018-Feb-19 15:27N 29°25' W 094°43'0 0.0
2018-Feb-19 14:55N 29°25' W 094°43'0 0.8
2018-Feb-19 14:28N 29°26' W 094°43'0 0.2
2018-Feb-19 14:00N 29°25' W 094°43'0 0.0
2018-Feb-19 13:30N 29°25' W 094°43'0 0.0
2018-Feb-19 13:00N 29°25' W 094°43'2 3.0
2018-Feb-19 12:16N 29°27' W 094°41'2 5.2
2018-Feb-19 11:56N 29°28' W 094°40'2 5.0
2018-Feb-19 11:27N 29°29' W 094°37'2 5.0
2018-Feb-19 11:00N 29°30' W 094°35'2 4.6
2018-Feb-19 10:30N 29°30' W 094°32'3 5.4
2018-Feb-19 10:01N 29°31' W 094°29'1 1.6
2018-Feb-19 09:30N 29°32' W 094°29'2 4.1
2018-Feb-19 09:00N 29°34' W 094°27'1 2.2
2018-Feb-19 08:30N 29°34' W 094°26'0 0.0
2018-Feb-19 08:00N 29°34' W 094°26'0 0.0
2018-Feb-19 07:30N 29°34' W 094°26'0 0.0
2018-Feb-19 07:00N 29°34' W 094°26'0 0.0
2018-Feb-19 06:30N 29°34' W 094°26'0 0.0
2018-Feb-19 05:59N 29°34' W 094°26'0 0.0
2018-Feb-19 05:30N 29°34' W 094°26'0 0.0
2018-Feb-19 05:00N 29°34' W 094°26'0 0.0
2018-Feb-19 04:29N 29°34' W 094°26'0 0.0
2018-Feb-19 03:58N 29°34' W 094°26'0 0.0
2018-Feb-19 03:30N 29°34' W 094°26'0 0.0
2018-Feb-19 02:59N 29°34' W 094°26'0 0.0
2018-Feb-19 02:29N 29°34' W 094°26'0 0.0
2018-Feb-19 02:00N 29°34' W 094°26'0 0.0
2018-Feb-19 01:22N 29°34' W 094°26'0 0.0
2018-Feb-18 23:21N 29°34' W 094°26'3 1.0
2018-Feb-18 20:33N 29°36' W 094°24'1 5.3
2018-Feb-18 20:17N 29°36' W 094°22'2 5.9
2018-Feb-18 19:57N 29°37' W 094°20'2 5.4
2018-Feb-18 19:29N 29°38' W 094°18'2 4.1
2018-Feb-18 18:58N 29°39' W 094°16'1 1.3
2018-Feb-18 18:31N 29°39' W 094°15'1 2.7
2018-Feb-18 17:59N 29°40' W 094°14'2 3.4
2018-Feb-18 17:30N 29°41' W 094°12'1 2.1
2018-Feb-18 17:00N 29°41' W 094°11'1 1.7
2018-Feb-18 16:30N 29°41' W 094°10'0 0.8
2018-Feb-18 16:00N 29°41' W 094°09'2 3.2
2018-Feb-18 15:30N 29°42' W 094°08'1 1.6
2018-Feb-18 14:59N 29°43' W 094°07'0 0.0
2018-Feb-18 14:30N 29°43' W 094°07'0 0.0
2018-Feb-18 14:00N 29°43' W 094°07'0 0.0
2018-Feb-18 13:30N 29°43' W 094°07'0 0.0
2018-Feb-18 13:00N 29°43' W 094°07'0 0.0
2018-Feb-18 12:30N 29°43' W 094°07'0 0.0
2018-Feb-18 12:01N 29°43' W 094°07'0 0.0
2018-Feb-18 11:31N 29°43' W 094°07'0 0.0
2018-Feb-18 11:01N 29°43' W 094°07'0 0.0
2018-Feb-18 10:30N 29°43' W 094°07'0 0.0
2018-Feb-18 10:00N 29°43' W 094°07'0 0.0
2018-Feb-18 09:31N 29°43' W 094°07'0 0.0
2018-Feb-18 09:01N 29°43' W 094°07'2 4.4
2018-Feb-18 08:30N 29°44' W 094°05'3 5.5
2018-Feb-18 08:00N 29°46' W 094°03'3 5.4
2018-Feb-18 07:30N 29°48' W 094°00'2 3.6
2018-Feb-18 07:01N 29°49' W 093°59'3 5.4
2018-Feb-18 06:30N 29°51' W 093°57'4 7.5
2018-Feb-18 06:00N 29°54' W 093°54'4 7.1
2018-Feb-18 05:30N 29°57' W 093°52'3 5.7
2018-Feb-18 05:01N 29°59' W 093°49'3 6.7
2018-Feb-18 04:31N 30°00' W 093°46'3 5.8
2018-Feb-18 04:00N 30°03' W 093°44'0 0.6
2018-Feb-18 03:30N 30°03' W 093°44'0 0.0
2018-Feb-18 03:00N 30°03' W 093°44'0 0.0
2018-Feb-18 02:30N 30°03' W 093°44'1 1.3
2018-Feb-18 02:01N 30°03' W 093°43'4 5.5
2018-Feb-18 01:22N 30°04' W 093°39'2 5.3
2018-Feb-18 01:00N 30°04' W 093°37'3 5.4
2018-Feb-18 00:27N 30°04' W 093°33'2 5.4
2018-Feb-18 00:00N 30°04' W 093°31'3 5.4
2018-Feb-17 23:30N 30°04' W 093°27'3 5.5
2018-Feb-17 23:00N 30°04' W 093°24'3 5.9
2018-Feb-17 22:31N 30°04' W 093°21'3 5.9
2018-Feb-17 22:00N 30°06' W 093°18'3 4.8
2018-Feb-17 21:29N 30°04' W 093°16'2 4.6
2018-Feb-17 21:00N 30°02' W 093°15'1 1.5
2018-Feb-17 20:31N 30°02' W 093°14'3 6.5
2018-Feb-17 20:01N 29°59' W 093°12'3 6.8
2018-Feb-17 19:30N 29°56' W 093°10'44 1.9
2018-Feb-16 20:15N 29°50' W 092°19'1 5.2
2018-Feb-16 20:00N 29°50' W 092°18'3 5.3
2018-Feb-16 19:30N 29°48' W 092°16'3 5.3
2018-Feb-16 19:00N 29°47' W 092°13'2 4.0
2018-Feb-16 18:30N 29°47' W 092°11'3 5.3
2018-Feb-16 18:00N 29°47' W 092°08'4 5.8
2018-Feb-16 17:16N 29°49' W 092°03'65 2.3
2018-Feb-15 13:16N 29°32' W 090°50'0 1.7
2018-Feb-15 13:00N 29°32' W 090°50'0 0.0
2018-Feb-15 12:30N 29°32' W 090°50'0 0.0
2018-Feb-15 12:00N 29°32' W 090°50'0 0.0
2018-Feb-15 11:30N 29°32' W 090°50'0 0.0
2018-Feb-15 11:00N 29°32' W 090°50'0 0.0
2018-Feb-15 10:30N 29°32' W 090°50'0 0.0
2018-Feb-15 10:00N 29°32' W 090°50'0 0.0
2018-Feb-15 09:30N 29°32' W 090°50'0 0.0
2018-Feb-15 09:00N 29°32' W 090°50'2 4.6
2018-Feb-15 08:30N 29°32' W 090°47'2 4.5
2018-Feb-15 08:00N 29°33' W 090°45'2 4.1
2018-Feb-15 07:30N 29°35' W 090°43'2 4.9
2018-Feb-15 07:01N 29°37' W 090°42'3 5.4
2018-Feb-15 06:30N 29°36' W 090°39'1 2.4
2018-Feb-15 06:00N 29°35' W 090°38'0 0.0
2018-Feb-15 05:30N 29°35' W 090°38'0 0.0
2018-Feb-15 05:00N 29°35' W 090°38'0 0.0
2018-Feb-15 04:30N 29°35' W 090°38'0 0.0
2018-Feb-15 04:00N 29°35' W 090°38'0 0.0
2018-Feb-15 03:30N 29°35' W 090°38'2 4.8
2018-Feb-15 02:59N 29°35' W 090°35'8 0.2
2018-Feb-13 01:16N 29°33' W 090°26'2 5.1
2018-Feb-13 00:57N 29°33' W 090°28'2 5.1
2018-Feb-13 00:30N 29°34' W 090°31'3 5.2
2018-Feb-13 00:00N 29°34' W 090°34'2 4.4
2018-Feb-12 23:30N 29°35' W 090°36'2 4.1
2018-Feb-12 23:00N 29°35' W 090°38'2 4.5
2018-Feb-12 22:30N 29°36' W 090°41'2 3.2
2018-Feb-12 22:00N 29°36' W 090°43'2 3.9
2018-Feb-12 21:30N 29°35' W 090°43'2 3.2
2018-Feb-12 21:00N 29°34' W 090°45'1 1.4
2018-Feb-12 20:30N 29°33' W 090°45'2 4.8
2018-Feb-12 20:00N 29°32' W 090°48'65 4.2
2018-Feb-12 04:28N 29°50' W 091°59'3 5.5
2018-Feb-12 04:01N 29°49' W 092°02'2 4.9
2018-Feb-12 03:30N 29°48' W 092°05'2 5.0
2018-Feb-12 03:00N 29°47' W 092°07'3 5.1
2018-Feb-12 02:30N 29°47' W 092°10'3 5.4
2018-Feb-12 02:00N 29°47' W 092°13'2 3.8
2018-Feb-12 01:30N 29°48' W 092°15'3 4.3
2018-Feb-12 00:47N 29°50' W 092°18'1 5.0
2018-Feb-12 00:30N 29°50' W 092°20'43 4.6
2018-Feb-11 15:01N 29°56' W 093°09'0 4.7
2018-Feb-11 14:59N 29°56' W 093°09'2 5.0
2018-Feb-11 14:30N 29°58' W 093°11'3 5.2
2018-Feb-11 14:00N 29°60' W 093°13'1 2.9
2018-Feb-11 13:30N 30°01' W 093°14'1 1.7
2018-Feb-11 12:59N 30°02' W 093°15'0 0.0
2018-Feb-11 12:30N 30°02' W 093°15'0 0.0
2018-Feb-11 12:00N 30°02' W 093°15'0 0.0
2018-Feb-11 11:30N 30°02' W 093°15'0 0.0
2018-Feb-11 11:00N 30°02' W 093°15'0 0.0
2018-Feb-11 10:29N 30°02' W 093°15'0 0.0
2018-Feb-11 09:59N 30°02' W 093°15'0 0.0
2018-Feb-11 09:30N 30°02' W 093°15'0 0.0
2018-Feb-11 08:55N 30°02' W 093°15'0 0.0
2018-Feb-11 08:30N 30°02' W 093°15'0 0.0
2018-Feb-11 08:00N 30°02' W 093°15'0 0.0
2018-Feb-11 07:29N 30°02' W 093°15'0 0.0
2018-Feb-11 07:01N 30°02' W 093°15'1 2.0
2018-Feb-11 06:30N 30°02' W 093°16'  

Dump ship's entire track history